EBAW/ANR METAR and TAF weather

Enter ICAO airport designator
Station Type Date Time Source
EBAW METAR 2022/12/04 10:50 UTC NOAA

EBAW 041050Z 06007KT 8000 BKN014 BKN020 02/M01 Q1017 TEMPO BKN016


Station Type Date Time Source
EBAW Decoded METAR 2022/12/04 10:50 UTC NOAA

Antwerpen / Deurne, Belgium (EBAW) 51-12N 004-28E 14M
Dec 04, 2022 - 05:50 AM EST / 2022.12.04 1050 UTC
Wind: from the ENE (060 degrees) at 8 MPH (7 KT):0
Visibility: 4 mile(s):0
Sky conditions: mostly cloudy
Temperature: 35 F (2 C)
Windchill: 28 F (-2 C):1
Dew Point: 30 F (-1 C)
Relative Humidity: 80%
Pressure (altimeter): 30.03 in. Hg (1017 hPa)
ob: EBAW 041050Z 06007KT 8000 BKN014 BKN020 02/M01 Q1017 TEMPO BKN016
cycle: 11

Station Type Date Time Source
EBAW TAF 2022/05/29 18:27 UTC NOAA

TAF TAF EBAW 291710Z 2918/3006 02006KT 9999 FEW025

Example: see airport list